createdAt,value
2019-02-27T00:00:24.910Z,84.41
2019-02-27T00:01:24.824Z,84.88
2019-02-27T00:02:25.491Z,84.88
2019-02-27T00:03:28.794Z,84.59
2019-02-27T00:04:24.753Z,84.69
2019-02-27T00:05:24.839Z,84.88
2019-02-27T00:06:24.804Z,84.31
2019-02-27T00:07:24.761Z,84.12
2019-02-27T00:08:27.042Z,84.41
2019-02-27T00:09:24.787Z,84.31
2019-02-27T00:10:24.654Z,84.03
2019-02-27T00:11:24.675Z,83.94
2019-02-27T00:12:24.599Z,84.03
2019-02-27T00:13:25.421Z,84.41
2019-02-27T00:14:24.680Z,84.50
2019-02-27T00:15:24.595Z,84.41
2019-02-27T00:16:24.617Z,84.12
2019-02-27T00:17:24.580Z,84.22
2019-02-27T00:18:24.548Z,84.12
2019-02-27T00:19:24.513Z,84.22
2019-02-27T00:20:24.514Z,84.22
2019-02-27T00:23:45.335Z,84.50
2019-02-27T00:24:43.529Z,84.31
2019-02-27T00:25:44.500Z,84.98
2019-02-27T00:26:43.592Z,84.78
2019-02-27T00:27:48.679Z,84.69
2019-02-27T00:28:43.574Z,84.59
2019-02-27T00:29:46.460Z,84.88
2019-02-27T00:30:43.554Z,85.17
2019-02-27T00:31:46.072Z,84.88
2019-02-27T00:32:43.379Z,84.50
2019-02-27T00:33:43.684Z,84.98
2019-02-27T00:34:43.544Z,84.98
2019-02-27T00:35:44.516Z,84.59
2019-02-27T00:36:45.168Z,84.59
2019-02-27T00:37:43.275Z,85.17
2019-02-27T00:38:43.423Z,84.88
2019-02-27T00:39:43.343Z,84.59
2019-02-27T00:40:43.306Z,84.98
2019-02-27T00:41:46.006Z,84.88
2019-02-27T00:42:43.236Z,84.50
2019-02-27T00:43:43.238Z,84.69
2019-02-27T00:44:44.994Z,84.69
2019-02-27T00:45:43.238Z,84.69
2019-02-27T00:46:44.035Z,84.69
2019-02-27T00:47:43.324Z,84.69
2019-02-27T00:48:54.031Z,84.41
2019-02-27T00:49:43.385Z,84.69
2019-02-27T00:50:43.913Z,84.78
2019-02-27T00:51:44.892Z,84.88
2019-02-27T00:52:43.215Z,84.69
2019-02-27T00:53:43.993Z,84.78
2019-02-27T00:54:43.178Z,84.69
2019-02-27T00:55:43.021Z,84.69
2019-02-27T00:56:45.063Z,84.69
2019-02-27T00:57:42.914Z,84.88
2019-02-27T00:58:43.310Z,84.98
2019-02-27T00:59:43.004Z,85.07
2019-02-27T01:00:43.043Z,85.17
2019-02-27T01:01:47.214Z,85.07
2019-02-27T01:02:42.976Z,84.69
2019-02-27T01:03:42.904Z,84.98
2019-02-27T01:04:42.941Z,85.26
2019-02-27T01:05:43.340Z,84.98
2019-02-27T01:06:45.009Z,85.17
2019-02-27T01:07:42.863Z,84.98
2019-02-27T01:08:42.882Z,85.17
2019-02-27T01:09:44.517Z,85.17
2019-02-27T01:10:45.258Z,85.36
2019-02-27T01:11:42.712Z,85.36
2019-02-27T01:12:42.864Z,85.36
2019-02-27T01:13:42.638Z,85.45
2019-02-27T01:16:04.256Z,85.45
2019-02-27T01:17:03.508Z,85.45
2019-02-27T01:18:58.013Z,85.17
2019-02-27T01:19:56.472Z,85.45
2019-02-27T01:20:56.428Z,85.55
2019-02-27T01:21:56.406Z,85.36
2019-02-27T01:22:58.068Z,85.55
2019-02-27T01:23:58.408Z,85.64
2019-02-27T01:24:56.296Z,85.64
2019-02-27T01:25:57.161Z,85.36
2019-02-27T01:26:58.239Z,85.36
2019-02-27T01:27:58.106Z,85.83
2019-02-27T01:28:56.261Z,85.74
2019-02-27T01:29:56.239Z,85.83
2019-02-27T01:30:56.312Z,86.02
2019-02-27T01:31:57.631Z,85.36
2019-02-27T01:32:56.293Z,85.93
2019-02-27T01:33:58.079Z,85.26
2019-02-27T01:34:56.295Z,85.26
2019-02-27T01:35:56.244Z,85.26
2019-02-27T01:36:58.075Z,85.93
2019-02-27T01:37:58.999Z,86.02
2019-02-27T01:38:56.220Z,85.93
2019-02-27T01:39:56.862Z,85.83
2019-02-27T01:40:56.214Z,85.83
2019-02-27T01:41:57.981Z,85.93
2019-02-27T01:42:57.591Z,86.11
2019-02-27T01:43:56.294Z,85.26
2019-02-27T01:44:56.186Z,85.45
2019-02-27T01:45:56.031Z,85.36
2019-02-27T01:46:56.163Z,85.36
2019-02-27T01:47:56.102Z,85.55
2019-02-27T01:48:56.361Z,85.55
2019-02-27T01:49:56.023Z,85.55
2019-02-27T01:50:57.647Z,85.55
2019-02-27T01:51:55.984Z,85.64
2019-02-27T01:52:56.717Z,85.83
2019-02-27T01:53:55.859Z,85.17
2019-02-27T01:54:56.005Z,85.55
2019-02-27T01:55:56.399Z,85.26
2019-02-27T01:56:55.806Z,85.36
2019-02-27T01:57:55.846Z,85.17
2019-02-27T01:58:56.761Z,85.26
2019-02-27T01:59:55.764Z,85.17
2019-02-27T02:00:56.849Z,85.36
2019-02-27T02:01:55.979Z,85.26
2019-02-27T02:02:55.784Z,85.45
2019-02-27T02:03:55.696Z,84.98
2019-02-27T02:04:56.820Z,85.17
2019-02-27T02:05:58.779Z,85.36
2019-02-27T02:06:55.669Z,85.17
2019-02-27T02:07:55.650Z,85.07
2019-02-27T02:08:55.487Z,84.98
2019-02-27T02:09:55.839Z,85.45
2019-02-27T02:10:55.578Z,85.45
2019-02-27T02:11:55.553Z,85.17
2019-02-27T02:12:55.507Z,85.36
2019-02-27T02:13:55.456Z,85.17
2019-02-27T02:14:55.724Z,85.07
2019-02-27T02:15:55.558Z,84.98
2019-02-27T02:16:57.166Z,85.17
2019-02-27T02:17:55.348Z,85.17
2019-02-27T02:18:55.513Z,85.26
2019-02-27T02:19:55.435Z,85.45
2019-02-27T02:20:55.359Z,85.36
2019-02-27T02:21:55.474Z,85.17
2019-02-27T02:22:55.387Z,85.26
2019-02-27T02:23:56.245Z,85.26
2019-02-27T02:24:56.085Z,85.26
2019-02-27T02:25:55.314Z,85.74
2019-02-27T02:26:57.233Z,85.55
2019-02-27T02:27:55.245Z,85.26
2019-02-27T02:28:56.119Z,85.64
2019-02-27T02:29:55.319Z,86.21
2019-02-27T02:30:55.281Z,85.45
2019-02-27T02:31:56.149Z,85.45
2019-02-27T02:32:55.075Z,85.36
2019-02-27T02:33:55.165Z,85.64
2019-02-27T02:34:58.137Z,85.36
2019-02-27T02:36:24.976Z,85.55
2019-02-27T02:37:01.228Z,85.36
2019-02-27T02:37:55.017Z,85.26
2019-02-27T02:38:55.174Z,85.45
2019-02-27T02:39:56.889Z,85.55
2019-02-27T02:40:55.550Z,85.26
2019-02-27T02:41:54.931Z,85.45
2019-02-27T02:42:54.927Z,85.45
2019-02-27T02:43:54.886Z,85.30
2019-02-27T02:44:57.679Z,84.98
2019-02-27T02:45:55.009Z,85.45
2019-02-27T02:46:54.995Z,85.30
2019-02-27T02:47:56.024Z,85.17
2019-02-27T02:48:54.755Z,85.40
2019-02-27T02:49:54.972Z,85.49
2019-02-27T02:50:55.090Z,85.17
2019-02-27T02:51:54.843Z,85.55
2019-02-27T02:52:54.807Z,85.55
2019-02-27T02:54:00.693Z,85.36
2019-02-27T02:54:54.765Z,85.64
2019-02-27T02:55:54.862Z,85.30
2019-02-27T02:57:00.121Z,85.36
2019-02-27T02:57:54.808Z,85.21
2019-02-27T02:58:54.677Z,85.11
2019-02-27T03:00:54.786Z,85.02
2019-02-27T03:02:05.758Z,85.30
2019-02-27T03:03:00.258Z,85.21
2019-02-27T03:03:55.175Z,85.21
2019-02-27T03:04:54.660Z,84.74
2019-02-27T03:05:58.599Z,84.92
2019-02-27T03:06:54.460Z,85.02
2019-02-27T03:07:55.100Z,85.11
2019-02-27T03:08:55.252Z,85.02
2019-02-27T03:09:57.074Z,85.02
2019-02-27T03:10:56.108Z,84.83
2019-02-27T03:11:55.648Z,85.30
2019-02-27T03:12:54.797Z,85.02
2019-02-27T03:13:54.601Z,85.11
2019-02-27T03:14:54.641Z,85.02
2019-02-27T03:15:54.643Z,85.49
2019-02-27T03:16:56.139Z,85.02
2019-02-27T03:17:55.219Z,85.11
2019-02-27T03:19:05.109Z,85.02
2019-02-27T03:19:56.667Z,85.02
2019-02-27T03:22:03.089Z,84.92
2019-02-27T03:22:54.306Z,85.49
2019-02-27T03:23:55.434Z,85.59
2019-02-27T03:24:54.515Z,85.59
2019-02-27T03:25:54.341Z,85.40
2019-02-27T03:26:54.232Z,85.49
2019-02-27T03:27:54.467Z,85.40
2019-02-27T03:28:54.350Z,85.02
2019-02-27T03:29:54.191Z,85.11
2019-02-27T03:30:54.154Z,85.49
2019-02-27T03:31:59.955Z,85.21
2019-02-27T03:32:54.048Z,85.02
2019-02-27T03:34:05.009Z,85.40
2019-02-27T03:35:08.744Z,85.11
2019-02-27T03:35:54.061Z,85.02
2019-02-27T03:36:54.648Z,85.02
2019-02-27T03:37:54.034Z,85.11
2019-02-27T03:38:55.850Z,85.02
2019-02-27T03:39:54.057Z,84.92
2019-02-27T03:40:53.950Z,84.74
2019-02-27T03:41:58.518Z,85.02
2019-02-27T03:42:54.729Z,84.74
2019-02-27T03:43:53.913Z,84.55
2019-02-27T03:44:57.194Z,84.92
2019-02-27T03:45:54.624Z,84.74
2019-02-27T03:46:53.993Z,84.64
2019-02-27T03:47:54.730Z,84.74
2019-02-27T03:48:55.689Z,84.64
2019-02-27T03:49:54.573Z,84.92
2019-02-27T03:50:54.600Z,84.64
2019-02-27T03:51:59.676Z,84.74
2019-02-27T03:52:53.747Z,84.45
2019-02-27T03:53:54.690Z,84.55
2019-02-27T03:54:58.141Z,84.83
2019-02-27T03:55:58.648Z,84.74
2019-02-27T03:56:53.830Z,85.02
2019-02-27T03:58:04.945Z,84.36
2019-02-27T03:58:53.611Z,84.17
2019-02-27T03:59:56.286Z,84.36
2019-02-27T04:00:54.062Z,84.26
2019-02-27T04:01:53.598Z,84.26
2019-02-27T04:02:53.659Z,83.97
2019-02-27T04:03:56.180Z,84.17
2019-02-27T04:04:53.775Z,84.07
2019-02-27T04:05:53.567Z,84.45
2019-02-27T04:06:56.262Z,84.17
2019-02-27T04:07:53.724Z,84.36
2019-02-27T04:08:53.617Z,84.07
2019-02-27T04:09:55.407Z,84.17
2019-02-27T04:10:53.350Z,84.17
2019-02-27T04:11:53.413Z,84.17
2019-02-27T04:12:53.382Z,84.17
2019-02-27T04:13:54.212Z,83.88
2019-02-27T04:14:53.481Z,83.78
2019-02-27T04:15:54.364Z,83.59
2019-02-27T04:16:53.280Z,83.97
2019-02-27T04:17:53.277Z,83.69
2019-02-27T04:18:53.303Z,83.88
2019-02-27T04:19:54.095Z,83.69
2019-02-27T04:20:53.896Z,83.78
2019-02-27T04:21:53.249Z,83.31
2019-02-27T04:22:53.343Z,83.59
2019-02-27T04:23:53.226Z,83.31
2019-02-27T04:24:56.787Z,83.88
2019-02-27T04:25:53.196Z,83.03
2019-02-27T04:26:53.195Z,83.03
2019-02-27T04:27:55.474Z,83.22
2019-02-27T04:28:53.015Z,83.22
2019-02-27T04:29:52.991Z,82.84
2019-02-27T04:30:52.979Z,82.84
2019-02-27T04:31:52.985Z,83.12
2019-02-27T04:32:53.024Z,83.03
2019-02-27T04:33:53.023Z,82.74
2019-02-27T04:34:55.731Z,82.93
2019-02-27T04:35:53.662Z,82.36
2019-02-27T04:36:52.881Z,82.46
2019-02-27T04:38:52.866Z,82.65
2019-02-27T04:39:52.917Z,82.46
2019-02-27T04:40:53.017Z,82.36
2019-02-27T04:41:52.811Z,82.08
2019-02-27T04:42:52.860Z,82.17
2019-02-27T04:43:52.996Z,82.17
2019-02-27T04:44:52.904Z,81.70
2019-02-27T04:45:53.874Z,82.08
2019-02-27T04:46:54.865Z,82.17
2019-02-27T04:47:52.789Z,81.70
2019-02-27T04:48:52.840Z,81.79
2019-02-27T04:49:52.714Z,81.51
2019-02-27T04:50:52.640Z,81.79
2019-02-27T04:51:52.925Z,81.41
2019-02-27T04:52:52.735Z,81.70
2019-02-27T04:53:55.696Z,81.70
2019-02-27T04:54:54.135Z,81.60
2019-02-27T04:55:52.891Z,81.60
2019-02-27T04:56:55.042Z,81.60
2019-02-27T04:57:54.105Z,81.41
2019-02-27T04:58:55.263Z,81.41
2019-02-27T04:59:55.177Z,81.60
2019-02-27T05:00:52.546Z,81.70
2019-02-27T05:01:52.644Z,81.60
2019-02-27T05:02:53.403Z,81.60
2019-02-27T05:03:53.190Z,81.41
2019-02-27T05:04:52.629Z,81.70
2019-02-27T05:05:52.596Z,81.70
2019-02-27T05:06:52.440Z,81.60
2019-02-27T05:07:54.280Z,81.79
2019-02-27T05:08:52.581Z,81.70
2019-02-27T05:09:54.098Z,81.79
2019-02-27T05:12:13.520Z,81.70
2019-02-27T05:13:13.406Z,82.17
2019-02-27T05:14:17.408Z,82.17
2019-02-27T05:15:12.699Z,82.17
2019-02-27T05:16:14.115Z,81.98
2019-02-27T05:17:12.741Z,82.17
2019-02-27T05:18:12.727Z,82.27
2019-02-27T05:19:12.557Z,82.27
2019-02-27T05:20:12.928Z,82.27
2019-02-27T05:21:12.613Z,81.98
2019-02-27T05:22:12.606Z,81.79
2019-02-27T05:23:13.682Z,81.98
2019-02-27T05:24:14.348Z,82.08
2019-02-27T05:25:14.445Z,82.08
2019-02-27T05:26:12.695Z,81.98
2019-02-27T05:27:12.625Z,81.70
2019-02-27T05:28:12.656Z,81.70
2019-02-27T05:29:12.504Z,81.51
2019-02-27T05:30:12.870Z,81.70
2019-02-27T05:31:13.585Z,81.41
2019-02-27T05:32:12.596Z,81.41
2019-02-27T05:33:12.555Z,81.60
2019-02-27T05:34:13.504Z,81.60
2019-02-27T05:35:12.640Z,81.70
2019-02-27T05:36:12.489Z,81.41
2019-02-27T05:37:12.247Z,81.60
2019-02-27T05:38:12.846Z,81.70
2019-02-27T05:39:14.897Z,81.41
2019-02-27T05:40:12.932Z,81.70
2019-02-27T05:41:13.881Z,81.32
2019-02-27T05:42:19.114Z,81.74
2019-02-27T05:43:13.848Z,81.55
2019-02-27T05:44:12.378Z,81.17
2019-02-27T05:45:12.186Z,81.45
2019-02-27T05:46:15.010Z,81.55
2019-02-27T05:47:16.753Z,81.36
2019-02-27T05:48:12.274Z,81.26
2019-02-27T05:49:12.317Z,81.17
2019-02-27T05:50:12.296Z,81.26
2019-02-27T05:51:13.968Z,80.79
2019-02-27T05:52:14.434Z,80.98
2019-02-27T05:53:12.145Z,80.79
2019-02-27T05:54:12.094Z,80.88
2019-02-27T05:55:12.043Z,80.79
2019-02-27T05:56:16.335Z,80.79
2019-02-27T05:57:12.052Z,80.79
2019-02-27T05:58:14.959Z,80.60
2019-02-27T05:59:12.163Z,80.69
2019-02-27T06:01:12.861Z,80.88
2019-02-27T06:02:11.921Z,81.07
2019-02-27T06:03:11.908Z,80.88
2019-02-27T06:04:11.967Z,80.35
2019-02-27T06:05:11.855Z,80.51
2019-02-27T06:06:12.448Z,80.64
2019-02-27T06:07:12.008Z,80.16
2019-02-27T06:08:11.967Z,80.16
2019-02-27T06:09:11.901Z,79.97
2019-02-27T06:10:11.793Z,79.79
2019-02-27T06:11:11.809Z,79.41
2019-02-27T06:12:11.994Z,79.69
2019-02-27T06:13:14.747Z,79.79
2019-02-27T06:14:14.358Z,79.27
2019-02-27T06:15:11.697Z,79.22
2019-02-27T06:16:11.748Z,79.22
2019-02-27T06:17:12.872Z,78.93
2019-02-27T06:18:11.713Z,79.22
2019-02-27T06:19:11.727Z,79.17
2019-02-27T06:20:14.402Z,79.36
2019-02-27T06:21:13.453Z,78.99
2019-02-27T06:22:12.317Z,79.27
2019-02-27T06:23:11.821Z,79.08
2019-02-27T06:24:12.454Z,78.89
2019-02-27T06:25:11.530Z,79.27
2019-02-27T06:26:11.618Z,79.08
2019-02-27T06:27:11.592Z,78.99
2019-02-27T06:28:11.499Z,78.89
2019-02-27T06:30:12.396Z,79.08
2019-02-27T06:31:13.361Z,79.17
2019-02-27T06:32:12.347Z,79.17
2019-02-27T06:33:11.883Z,79.27
2019-02-27T06:34:11.900Z,79.36
2019-02-27T06:35:12.039Z,79.17
2019-02-27T06:36:13.053Z,79.27
2019-02-27T06:37:15.340Z,79.17
2019-02-27T06:38:11.369Z,79.17
2019-02-27T06:39:11.353Z,79.17
2019-02-27T06:40:11.215Z,79.17
2019-02-27T06:41:17.945Z,79.27
2019-02-27T06:42:14.005Z,79.22
2019-02-27T06:43:11.860Z,78.80
2019-02-27T06:44:11.362Z,78.99
2019-02-27T06:45:12.651Z,78.89
2019-02-27T06:46:13.463Z,78.83
2019-02-27T06:47:14.207Z,78.99
2019-02-27T06:48:15.009Z,78.93
2019-02-27T06:49:12.052Z,79.03
2019-02-27T06:50:16.109Z,78.93
2019-02-27T06:51:11.037Z,78.83
2019-02-27T06:52:11.062Z,78.89
2019-02-27T06:53:15.625Z,79.46
2019-02-27T06:54:11.705Z,78.89
2019-02-27T06:55:13.050Z,79.27
2019-02-27T06:56:11.601Z,78.89
2019-02-27T06:57:12.619Z,78.83
2019-02-27T06:58:14.597Z,78.83
2019-02-27T06:59:12.124Z,78.93
2019-02-27T07:00:11.675Z,78.93
2019-02-27T07:02:10.923Z,79.31
2019-02-27T07:03:12.190Z,79.27
2019-02-27T07:04:11.526Z,79.69
2019-02-27T07:05:14.941Z,79.46
2019-02-27T07:06:12.708Z,79.41
2019-02-27T07:07:11.055Z,79.03
2019-02-27T07:08:11.453Z,79.17
2019-02-27T07:09:11.623Z,78.99
2019-02-27T07:10:11.799Z,79.12
2019-02-27T07:11:16.051Z,79.41
2019-02-27T07:12:15.844Z,79.22
2019-02-27T07:13:14.942Z,79.31
2019-02-27T07:14:11.966Z,79.41
2019-02-27T07:15:12.794Z,79.41
2019-02-27T07:16:11.391Z,79.31
2019-02-27T07:17:13.548Z,79.03
2019-02-27T07:18:11.939Z,79.12
2019-02-27T07:19:15.701Z,78.83
2019-02-27T07:20:14.119Z,78.93
2019-02-27T07:22:13.804Z,78.55
2019-02-27T07:24:11.097Z,78.64
2019-02-27T07:25:11.396Z,78.64
2019-02-27T07:26:15.837Z,78.36
2019-02-27T07:27:11.450Z,78.55
2019-02-27T07:28:10.498Z,78.55
2019-02-27T07:29:21.005Z,78.45
2019-02-27T07:30:11.469Z,78.45
2019-02-27T07:31:12.438Z,78.45
2019-02-27T07:32:17.053Z,78.45
2019-02-27T07:33:10.989Z,78.45
2019-02-27T07:34:14.193Z,78.74
2019-02-27T07:35:17.340Z,78.64
2019-02-27T07:36:15.009Z,78.36
2019-02-27T07:38:11.330Z,79.31
2019-02-27T07:39:10.372Z,78.83
2019-02-27T07:40:10.412Z,78.93
2019-02-27T07:41:10.229Z,78.83
2019-02-27T07:42:12.196Z,78.83
2019-02-27T07:44:10.890Z,78.93
2019-02-27T07:45:10.731Z,78.93
2019-02-27T07:46:11.366Z,78.64
2019-02-27T07:47:11.083Z,78.45
2019-02-27T07:48:10.216Z,78.64
2019-02-27T07:50:10.952Z,78.02
2019-02-27T07:51:10.918Z,77.70
2019-02-27T07:52:10.819Z,77.89
2019-02-27T07:53:10.151Z,78.30
2019-02-27T07:54:10.298Z,78.17
2019-02-27T07:55:20.738Z,77.92
2019-02-27T07:56:10.149Z,77.51
2019-02-27T07:57:10.662Z,77.98
2019-02-27T07:58:12.978Z,78.08
2019-02-27T07:59:11.981Z,77.70
2019-02-27T08:00:14.981Z,77.98
2019-02-27T08:01:10.068Z,77.98
2019-02-27T08:02:10.028Z,77.73
2019-02-27T08:03:12.929Z,77.73
2019-02-27T08:04:10.875Z,77.92
2019-02-27T08:05:09.781Z,78.21
2019-02-27T08:06:10.675Z,78.17
2019-02-27T08:07:09.979Z,78.21
2019-02-27T08:08:10.696Z,78.02
2019-02-27T08:09:16.380Z,78.21
2019-02-27T08:10:11.418Z,78.17
2019-02-27T08:11:13.658Z,78.11
2019-02-27T08:12:09.981Z,78.02
2019-02-27T08:13:10.905Z,78.11
2019-02-27T08:14:14.267Z,77.83
2019-02-27T08:15:10.851Z,77.64
2019-02-27T08:16:10.564Z,77.73
2019-02-27T08:17:17.701Z,77.73
2019-02-27T08:18:29.535Z,77.73
2019-02-27T08:19:11.615Z,77.36
2019-02-27T08:20:10.343Z,77.73
2019-02-27T08:21:09.773Z,77.36
2019-02-27T08:22:09.731Z,77.07
2019-02-27T08:23:09.770Z,76.69
2019-02-27T08:24:09.965Z,76.88
2019-02-27T08:25:09.519Z,76.97
2019-02-27T08:26:10.663Z,76.69
2019-02-27T08:27:10.346Z,76.78
2019-02-27T08:28:09.474Z,76.97
2019-02-27T08:29:10.168Z,76.31
2019-02-27T08:30:11.442Z,76.63
2019-02-27T08:31:10.153Z,75.96
2019-02-27T08:32:09.532Z,76.35
2019-02-27T08:33:09.944Z,76.06
2019-02-27T08:34:09.596Z,75.87
2019-02-27T08:35:14.280Z,75.59
2019-02-27T08:36:16.049Z,75.59
2019-02-27T08:37:11.022Z,75.40
2019-02-27T08:38:11.080Z,75.02
2019-02-27T08:39:09.307Z,74.77
2019-02-27T08:40:09.382Z,74.48
2019-02-27T08:41:10.061Z,74.10
2019-02-27T08:42:09.702Z,73.82
2019-02-27T08:43:10.988Z,73.72
2019-02-27T08:44:12.330Z,73.25
2019-02-27T08:45:18.827Z,73.25
2019-02-27T08:46:16.538Z,73.15
2019-02-27T08:47:30.438Z,73.25
2019-02-27T08:48:22.001Z,72.67
2019-02-27T08:49:09.956Z,72.77
2019-02-27T08:50:10.428Z,72.67
2019-02-27T08:51:11.481Z,72.58
2019-02-27T08:52:13.139Z,72.20
2019-02-27T08:53:12.638Z,73.25
2019-02-27T08:56:12.189Z,72.30
2019-02-27T08:58:09.076Z,72.77
2019-02-27T08:59:09.051Z,72.67
2019-02-27T09:00:14.196Z,72.67
2019-02-27T09:01:08.918Z,72.39
2019-02-27T09:02:21.800Z,72.67
2019-02-27T09:03:23.419Z,72.39
2019-02-27T09:04:11.294Z,72.62
2019-02-27T09:05:09.177Z,71.91
2019-02-27T09:06:09.335Z,72.05
2019-02-27T09:07:11.549Z,72.01
2019-02-27T09:08:12.366Z,71.91
2019-02-27T09:09:08.980Z,71.82
2019-02-27T09:12:13.406Z,72.11
2019-02-27T09:13:13.431Z,72.05
2019-02-27T09:14:08.873Z,71.82
2019-02-27T09:15:09.305Z,71.82
2019-02-27T09:16:09.739Z,71.76
2019-02-27T09:17:08.799Z,72.14
2019-02-27T09:18:08.800Z,71.72
2019-02-27T09:19:10.140Z,71.76
2019-02-27T09:20:08.766Z,71.67
2019-02-27T09:21:08.627Z,71.67
2019-02-27T09:22:11.850Z,71.86
2019-02-27T09:24:09.209Z,71.38
2019-02-27T09:25:13.303Z,71.47
2019-02-27T09:26:09.643Z,71.47
2019-02-27T09:27:08.520Z,71.47
2019-02-27T09:28:09.301Z,71.76
2019-02-27T09:29:19.474Z,71.47
2019-02-27T09:30:11.597Z,71.19
2019-02-27T09:31:14.941Z,71.00
2019-02-27T09:32:30.595Z,71.47
2019-02-27T09:33:11.944Z,71.38
2019-02-27T09:34:09.039Z,71.47
2019-02-27T09:35:09.007Z,70.90
2019-02-27T09:36:10.335Z,71.00
2019-02-27T09:37:08.551Z,71.38
2019-02-27T09:38:08.750Z,70.90
2019-02-27T09:39:10.011Z,71.19
2019-02-27T09:40:08.587Z,70.81
2019-02-27T09:42:29.254Z,70.52
2019-02-27T09:43:29.373Z,70.62
2019-02-27T09:45:22.271Z,70.14
2019-02-27T09:46:22.069Z,70.05
2019-02-27T09:47:23.188Z,70.08
2019-02-27T09:49:22.000Z,69.42
2019-02-27T09:50:22.107Z,69.60
2019-02-27T09:51:22.185Z,69.57
2019-02-27T09:52:27.855Z,69.32
2019-02-27T09:53:22.198Z,69.04
2019-02-27T09:54:28.617Z,68.56
2019-02-27T09:55:22.265Z,68.46
2019-02-27T09:56:36.784Z,67.70
2019-02-27T09:57:24.891Z,68.12
2019-02-27T09:58:22.710Z,67.45
2019-02-27T09:59:22.720Z,67.64
2019-02-27T10:00:28.727Z,67.35
2019-02-27T10:01:43.412Z,67.35
2019-02-27T10:02:22.680Z,67.26
2019-02-27T10:03:23.241Z,67.35
2019-02-27T10:04:29.739Z,67.16
2019-02-27T10:05:26.123Z,66.78
2019-02-27T10:06:23.909Z,67.26
2019-02-27T10:07:24.217Z,66.88
2019-02-27T10:08:30.827Z,66.78
2019-02-27T10:09:21.994Z,66.59
2019-02-27T10:10:23.728Z,66.78
2019-02-27T10:11:22.338Z,66.31
2019-02-27T10:12:27.074Z,66.40
2019-02-27T10:13:22.522Z,66.50
2019-02-27T10:14:25.336Z,66.15
2019-02-27T10:17:21.737Z,65.10
2019-02-27T10:18:22.173Z,64.97
2019-02-27T10:19:22.751Z,65.36
2019-02-27T10:20:29.314Z,65.10
2019-02-27T10:21:23.324Z,65.29
2019-02-27T10:22:24.538Z,64.72
2019-02-27T10:23:30.554Z,65.20
2019-02-27T10:24:21.557Z,65.00
2019-02-27T10:25:22.530Z,64.91
2019-02-27T10:26:25.702Z,65.00
2019-02-27T10:27:21.590Z,65.10
2019-02-27T10:28:21.427Z,64.72
2019-02-27T10:29:25.313Z,64.91
2019-02-27T10:30:27.398Z,65.00
2019-02-27T10:31:25.959Z,65.00
2019-02-27T10:32:22.657Z,64.81
2019-02-27T10:33:21.721Z,65.10
2019-02-27T10:34:24.023Z,65.10
2019-02-27T10:35:22.919Z,64.81
2019-02-27T10:36:39.045Z,65.00
2019-02-27T10:37:22.528Z,65.10
2019-02-27T10:38:27.452Z,64.85
2019-02-27T10:39:37.152Z,65.04
2019-02-27T10:40:21.775Z,64.75
2019-02-27T10:41:42.520Z,64.65
2019-02-27T10:42:22.363Z,64.09
2019-02-27T10:43:21.585Z,63.89
2019-02-27T10:44:22.168Z,63.42
2019-02-27T10:45:21.455Z,63.13
2019-02-27T10:46:23.466Z,62.84
2019-02-27T10:47:23.315Z,62.56
2019-02-27T10:48:21.219Z,62.11
2019-02-27T10:49:27.524Z,62.30
2019-02-27T10:50:27.041Z,61.92
2019-02-27T10:51:24.737Z,61.73
2019-02-27T10:52:24.316Z,61.19
2019-02-27T10:53:27.201Z,61.25
2019-02-27T10:54:21.880Z,60.52
2019-02-27T10:55:22.182Z,60.14
2019-02-27T10:56:36.085Z,60.07
2019-02-27T10:57:21.197Z,59.88
2019-02-27T10:58:21.675Z,59.53
2019-02-27T10:59:22.201Z,58.67
2019-02-27T11:00:24.903Z,58.48
2019-02-27T11:01:21.164Z,58.48
2019-02-27T11:02:23.470Z,58.32
2019-02-27T11:03:23.695Z,58.03
2019-02-27T11:04:21.099Z,57.26
2019-02-27T11:05:21.840Z,57.26
2019-02-27T11:06:42.055Z,57.10
2019-02-27T11:07:42.304Z,56.62
2019-02-27T11:08:23.820Z,57.01
2019-02-27T11:09:23.879Z,57.48
2019-02-27T11:10:23.979Z,56.91
2019-02-27T11:11:22.431Z,57.01
2019-02-27T11:12:21.317Z,56.72
2019-02-27T11:13:21.813Z,56.15
2019-02-27T11:14:23.735Z,56.43
2019-02-27T11:15:20.938Z,55.96
2019-02-27T11:16:21.423Z,56.31
2019-02-27T11:17:22.031Z,56.60
2019-02-27T11:18:36.687Z,57.36
2019-02-27T11:19:23.090Z,57.46
2019-02-27T11:21:48.321Z,57.75
2019-02-27T11:22:44.359Z,58.00
2019-02-27T11:23:41.990Z,58.61
2019-02-27T11:24:41.973Z,58.41
2019-02-27T11:25:41.831Z,57.84
2019-02-27T11:26:41.906Z,57.55
2019-02-27T11:29:42.140Z,56.98
2019-02-27T11:30:42.233Z,57.17
2019-02-27T11:31:42.291Z,56.79
2019-02-27T11:33:04.434Z,56.21
2019-02-27T11:35:14.397Z,54.68
2019-02-27T11:36:19.400Z,54.78
2019-02-27T11:37:16.409Z,54.39
2019-02-27T11:38:35.484Z,54.11
2019-02-27T11:39:14.360Z,54.02
2019-02-27T11:40:14.545Z,54.04
2019-02-27T11:41:18.893Z,54.02
2019-02-27T11:42:14.833Z,54.14
2019-02-27T11:43:14.620Z,53.75
2019-02-27T11:44:15.954Z,54.04
2019-02-27T11:45:14.962Z,53.82
2019-02-27T11:46:17.978Z,53.82
2019-02-27T11:47:16.813Z,54.11
2019-02-27T11:48:14.141Z,54.11
2019-02-27T11:49:18.786Z,54.21
2019-02-27T11:50:17.994Z,54.11
2019-02-27T11:51:14.290Z,54.11
2019-02-27T11:52:18.125Z,54.21
2019-02-27T11:54:35.057Z,54.21
2019-02-27T11:55:34.567Z,54.30
2019-02-27T11:57:30.538Z,54.30
2019-02-27T11:58:29.469Z,54.39
2019-02-27T12:00:28.757Z,54.11
2019-02-27T12:01:25.989Z,53.73
2019-02-27T12:02:28.726Z,53.92
2019-02-27T12:03:24.040Z,53.63
2019-02-27T12:04:21.727Z,53.73
2019-02-27T12:05:21.202Z,53.53
2019-02-27T12:06:21.522Z,53.53
2019-02-27T12:07:23.014Z,53.16
2019-02-27T12:08:25.882Z,53.44
2019-02-27T12:09:21.041Z,53.08
2019-02-27T12:10:23.721Z,52.51
2019-02-27T12:12:23.401Z,52.48
2019-02-27T12:13:21.743Z,52.29
2019-02-27T12:14:21.006Z,52.29
2019-02-27T12:15:21.945Z,52.67
2019-02-27T12:16:27.905Z,52.48
2019-02-27T12:17:23.243Z,52.94
2019-02-27T12:18:21.174Z,52.84
2019-02-27T12:19:21.159Z,53.03
2019-02-27T12:20:44.007Z,53.51
2019-02-27T12:21:25.460Z,53.41
2019-02-27T12:22:21.194Z,53.22
2019-02-27T12:24:29.342Z,53.06
2019-02-27T12:26:14.666Z,52.01
2019-02-27T12:27:23.227Z,52.29
2019-02-27T12:28:17.347Z,52.20
2019-02-27T12:30:24.380Z,52.39
2019-02-27T12:31:18.409Z,52.67
2019-02-27T12:32:19.226Z,52.67
2019-02-27T12:33:14.298Z,52.29
2019-02-27T12:34:13.793Z,52.67
2019-02-27T12:35:15.796Z,52.13
2019-02-27T12:36:18.668Z,52.42
2019-02-27T12:37:27.703Z,51.56
2019-02-27T12:38:14.357Z,51.39
2019-02-27T12:39:16.068Z,51.29
2019-02-27T12:40:15.403Z,51.03
2019-02-27T12:41:15.941Z,50.00
2019-02-27T12:42:36.908Z,49.74
2019-02-27T12:44:18.698Z,48.43
2019-02-27T12:45:35.263Z,47.77
2019-02-27T12:47:37.712Z,46.53
2019-02-27T12:48:35.170Z,45.86
2019-02-27T12:49:34.531Z,45.88
2019-02-27T12:50:35.141Z,45.78
2019-02-27T12:51:38.006Z,46.05
2019-02-27T12:52:35.431Z,45.88
2019-02-27T12:53:35.221Z,46.07
2019-02-27T12:54:36.345Z,45.57
2019-02-27T12:55:36.341Z,45.18
2019-02-27T12:56:36.304Z,45.67
2019-02-27T12:57:36.327Z,45.74
2019-02-27T12:58:34.489Z,45.93
2019-02-27T12:59:34.511Z,46.12
2019-02-27T13:00:34.438Z,45.74
2019-02-27T13:01:36.067Z,45.18
2019-02-27T13:02:44.152Z,44.80
2019-02-27T13:03:34.565Z,44.92
2019-02-27T13:04:34.496Z,44.44
2019-02-27T13:05:58.222Z,44.32
2019-02-27T13:06:37.300Z,43.84
2019-02-27T13:07:35.268Z,44.03
2019-02-27T13:08:34.356Z,44.03
2019-02-27T13:09:35.151Z,44.11
2019-02-27T13:10:34.450Z,44.49
2019-02-27T13:11:34.366Z,44.95
2019-02-27T13:12:35.116Z,45.72
2019-02-27T13:13:34.316Z,45.81
2019-02-27T13:14:34.500Z,46.08
2019-02-27T13:16:04.196Z,46.55
2019-02-27T13:16:34.520Z,46.84
2019-02-27T13:17:35.166Z,47.30
2019-02-27T13:18:37.083Z,47.30
2019-02-27T13:19:34.264Z,47.11
2019-02-27T13:20:34.458Z,47.20
2019-02-27T13:21:34.211Z,47.68
2019-02-27T13:22:45.302Z,47.49
2019-02-27T13:23:36.419Z,47.30
2019-02-27T13:24:35.862Z,47.37
2019-02-27T13:25:34.221Z,47.94
2019-02-27T13:26:34.721Z,47.94
2019-02-27T13:27:34.363Z,47.47
2019-02-27T13:28:34.287Z,47.63
2019-02-27T13:29:44.615Z,47.73
2019-02-27T13:31:34.162Z,48.39
2019-02-27T13:32:34.154Z,48.09
2019-02-27T13:33:35.458Z,48.28
2019-02-27T13:34:34.232Z,49.02
2019-02-27T13:35:34.039Z,49.78